sensor_id;sensor_type;location;lat;lon;timestamp;pressure;altitude;pressure_sealevel;temperature;humidity
59873;BME280;50750;51.636;4.948;2023-02-15T00:01:45;103055.42;;;11.88;61.42
59873;BME280;50750;51.636;4.948;2023-02-15T00:04:16;103054.52;;;11.86;61.35
59873;BME280;50750;51.636;4.948;2023-02-15T00:06:42;103057.52;;;11.85;61.34
59873;BME280;50750;51.636;4.948;2023-02-15T00:09:09;103051.88;;;11.84;61.39
59873;BME280;50750;51.636;4.948;2023-02-15T00:11:36;103047.31;;;11.84;61.32
59873;BME280;50750;51.636;4.948;2023-02-15T00:14:19;103042.41;;;11.83;61.33
59873;BME280;50750;51.636;4.948;2023-02-15T00:16:46;103038.71;;;11.82;61.28
59873;BME280;50750;51.636;4.948;2023-02-15T00:19:14;103035.89;;;11.81;61.33
59873;BME280;50750;51.636;4.948;2023-02-15T00:21:40;103034.67;;;11.81;61.25
59873;BME280;50750;51.636;4.948;2023-02-15T00:24:08;103031.34;;;11.80;61.20
59873;BME280;50750;51.636;4.948;2023-02-15T00:26:35;103028.17;;;11.80;61.25
59873;BME280;50750;51.636;4.948;2023-02-15T00:29:01;103023.96;;;11.79;61.14
59873;BME280;50750;51.636;4.948;2023-02-15T00:31:29;103022.23;;;11.78;61.22
59873;BME280;50750;51.636;4.948;2023-02-15T00:34:21;103020.11;;;11.77;61.27
59873;BME280;50750;51.636;4.948;2023-02-15T00:36:48;103018.17;;;11.77;61.28
59873;BME280;50750;51.636;4.948;2023-02-15T00:39:15;103013.78;;;11.76;61.32
59873;BME280;50750;51.636;4.948;2023-02-15T00:41:41;103019.41;;;11.76;61.20
59873;BME280;50750;51.636;4.948;2023-02-15T00:44:07;103013.45;;;11.76;61.23
59873;BME280;50750;51.636;4.948;2023-02-15T00:46:34;103011.69;;;11.75;61.13
59873;BME280;50750;51.636;4.948;2023-02-15T00:49:01;103009.95;;;11.74;61.22
59873;BME280;50750;51.636;4.948;2023-02-15T00:51:27;103010.98;;;11.74;61.18
59873;BME280;50750;51.636;4.948;2023-02-15T00:53:53;103014.33;;;11.74;61.17
59873;BME280;50750;51.636;4.948;2023-02-15T00:56:19;103017.13;;;11.73;61.19
59873;BME280;50750;51.636;4.948;2023-02-15T00:58:45;103016.96;;;11.72;61.15
59873;BME280;50750;51.636;4.948;2023-02-15T01:01:13;103014.67;;;11.72;61.11
59873;BME280;50750;51.636;4.948;2023-02-15T01:03:40;103013.27;;;11.72;61.14
59873;BME280;50750;51.636;4.948;2023-02-15T01:06:10;103010.11;;;11.71;61.12
59873;BME280;50750;51.636;4.948;2023-02-15T01:08:36;103011.16;;;11.71;60.96
59873;BME280;50750;51.636;4.948;2023-02-15T01:11:14;103007.30;;;11.70;61.05
59873;BME280;50750;51.636;4.948;2023-02-15T01:13:41;103002.39;;;11.69;61.08
59873;BME280;50750;51.636;4.948;2023-02-15T01:16:07;102997.66;;;11.69;61.04
59873;BME280;50750;51.636;4.948;2023-02-15T01:18:34;102994.14;;;11.69;60.99
59873;BME280;50750;51.636;4.948;2023-02-15T01:21:09;102986.58;;;11.68;61.07
59873;BME280;50750;51.636;4.948;2023-02-15T01:23:35;102984.31;;;11.68;60.96
59873;BME280;50750;51.636;4.948;2023-02-15T01:26:02;102982.55;;;11.67;60.96
59873;BME280;50750;51.636;4.948;2023-02-15T01:28:28;102981.33;;;11.67;61.09
59873;BME280;50750;51.636;4.948;2023-02-15T01:30:53;102979.58;;;11.67;61.04
59873;BME280;50750;51.636;4.948;2023-02-15T01:33:19;102976.07;;;11.67;61.04
59873;BME280;50750;51.636;4.948;2023-02-15T01:35:45;102975.89;;;11.67;61.00
59873;BME280;50750;51.636;4.948;2023-02-15T01:38:13;102976.77;;;11.66;60.94
59873;BME280;50750;51.636;4.948;2023-02-15T01:40:39;102979.40;;;11.66;61.00
59873;BME280;50750;51.636;4.948;2023-02-15T01:43:10;102973.77;;;11.66;60.98
59873;BME280;50750;51.636;4.948;2023-02-15T01:45:38;102976.77;;;11.65;60.98
59873;BME280;50750;51.636;4.948;2023-02-15T01:50:53;102969.05;;;11.64;60.88
59873;BME280;50750;51.636;4.948;2023-02-15T01:53:40;102966.43;;;11.64;60.99
59873;BME280;50750;51.636;4.948;2023-02-15T01:56:15;102963.25;;;11.62;60.94
59873;BME280;50750;51.636;4.948;2023-02-15T01:58:43;102957.82;;;11.62;60.90
59873;BME280;50750;51.636;4.948;2023-02-15T02:01:09;102959.75;;;11.60;61.00
59873;BME280;50750;51.636;4.948;2023-02-15T02:06:10;102956.94;;;11.60;60.91
59873;BME280;50750;51.636;4.948;2023-02-15T02:08:38;102955.20;;;11.59;60.97
59873;BME280;50750;51.636;4.948;2023-02-15T02:11:10;102955.55;;;11.59;61.00
59873;BME280;50750;51.636;4.948;2023-02-15T02:13:37;102951.33;;;11.59;61.00
59873;BME280;50750;51.636;4.948;2023-02-15T02:16:24;102949.05;;;11.58;60.96
59873;BME280;50750;51.636;4.948;2023-02-15T02:24:20;102941.33;;;11.56;60.93
59873;BME280;50750;51.636;4.948;2023-02-15T02:29:44;102933.27;;;11.56;60.91
59873;BME280;50750;51.636;4.948;2023-02-15T02:38:03;102921.85;;;11.55;60.83
59873;BME280;50750;51.636;4.948;2023-02-15T02:40:47;102919.75;;;11.54;60.91
59873;BME280;50750;51.636;4.948;2023-02-15T02:43:24;102918.89;;;11.53;60.80
59873;BME280;50750;51.636;4.948;2023-02-15T02:45:57;102915.02;;;11.53;60.78
59873;BME280;50750;51.636;4.948;2023-02-15T02:48:28;102905.02;;;11.52;60.91
59873;BME280;50750;51.636;4.948;2023-02-15T02:50:56;102901.52;;;11.53;60.82
59873;BME280;50750;51.636;4.948;2023-02-15T02:53:22;102898.70;;;11.52;60.81
59873;BME280;50750;51.636;4.948;2023-02-15T02:55:55;102892.73;;;11.52;60.76
59873;BME280;50750;51.636;4.948;2023-02-15T02:58:31;102890.10;;;11.51;60.73
59873;BME280;50750;51.636;4.948;2023-02-15T03:01:15;102893.09;;;11.51;60.63
59873;BME280;50750;51.636;4.948;2023-02-15T03:03:46;102889.23;;;11.51;60.75
59873;BME280;50750;51.636;4.948;2023-02-15T03:06:20;102885.73;;;11.50;60.76
59873;BME280;50750;51.636;4.948;2023-02-15T03:08:58;102885.91;;;11.50;60.83
59873;BME280;50750;51.636;4.948;2023-02-15T03:11:26;102882.39;;;11.50;60.74
59873;BME280;50750;51.636;4.948;2023-02-15T03:13:53;102885.71;;;11.49;60.77
59873;BME280;50750;51.636;4.948;2023-02-15T03:16:19;102884.66;;;11.49;60.77
59873;BME280;50750;51.636;4.948;2023-02-15T03:19:15;102881.50;;;11.49;60.74
59873;BME280;50750;51.636;4.948;2023-02-15T03:21:49;102880.27;;;11.48;60.80
59873;BME280;50750;51.636;4.948;2023-02-15T03:27:04;102881.69;;;11.48;60.78
59873;BME280;50750;51.636;4.948;2023-02-15T03:29:32;102878.00;;;11.47;60.81
59873;BME280;50750;51.636;4.948;2023-02-15T03:32:03;102873.61;;;11.47;60.91
59873;BME280;50750;51.636;4.948;2023-02-15T03:34:30;102878.88;;;11.46;60.83
59873;BME280;50750;51.636;4.948;2023-02-15T03:39:46;102875.02;;;11.46;60.83
59873;BME280;50750;51.636;4.948;2023-02-15T03:42:17;102878.89;;;11.45;60.80
59873;BME280;50750;51.636;4.948;2023-02-15T03:47:20;102880.64;;;11.45;60.78
59873;BME280;50750;51.636;4.948;2023-02-15T03:50:01;102874.85;;;11.44;60.74
59873;BME280;50750;51.636;4.948;2023-02-15T03:52:30;102875.38;;;11.44;60.67
59873;BME280;50750;51.636;4.948;2023-02-15T03:54:57;102872.75;;;11.43;60.70
59873;BME280;50750;51.636;4.948;2023-02-15T03:57:26;102866.61;;;11.43;60.69
59873;BME280;50750;51.636;4.948;2023-02-15T04:00:23;102867.31;;;11.43;60.62
59873;BME280;50750;51.636;4.948;2023-02-15T04:05:44;102866.63;;;11.42;60.63
59873;BME280;50750;51.636;4.948;2023-02-15T04:08:10;102857.13;;;11.41;60.71
59873;BME280;50750;51.636;4.948;2023-02-15T04:10:36;102857.48;;;11.40;60.66
59873;BME280;50750;51.636;4.948;2023-02-15T04:13:29;102849.80;;;11.39;60.65
59873;BME280;50750;51.636;4.948;2023-02-15T04:15:55;102849.60;;;11.39;60.58
59873;BME280;50750;51.636;4.948;2023-02-15T04:21:14;102847.85;;;11.38;60.63
59873;BME280;50750;51.636;4.948;2023-02-15T04:23:58;102847.68;;;11.37;60.64
59873;BME280;50750;51.636;4.948;2023-02-15T04:26:43;102849.77;;;11.36;60.72
59873;BME280;50750;51.636;4.948;2023-02-15T04:29:09;102851.19;;;11.36;60.51
59873;BME280;50750;51.636;4.948;2023-02-15T04:31:35;102848.55;;;11.35;60.75
59873;BME280;50750;51.636;4.948;2023-02-15T04:34:00;102850.31;;;11.35;60.60
59873;BME280;50750;51.636;4.948;2023-02-15T04:36:26;102846.11;;;11.35;60.67
59873;BME280;50750;51.636;4.948;2023-02-15T04:38:52;102842.60;;;11.35;60.62
59873;BME280;50750;51.636;4.948;2023-02-15T04:41:18;102841.54;;;11.34;60.59
59873;BME280;50750;51.636;4.948;2023-02-15T04:43:44;102839.61;;;11.34;60.53
59873;BME280;50750;51.636;4.948;2023-02-15T04:46:10;102842.95;;;11.34;60.54
59873;BME280;50750;51.636;4.948;2023-02-15T04:48:35;102843.64;;;11.34;60.56
59873;BME280;50750;51.636;4.948;2023-02-15T04:51:06;102842.77;;;11.34;60.62
59873;BME280;50750;51.636;4.948;2023-02-15T04:53:33;102841.02;;;11.34;60.54
59873;BME280;50750;51.636;4.948;2023-02-15T04:55:58;102838.73;;;11.34;60.57
59873;BME280;50750;51.636;4.948;2023-02-15T04:58:24;102833.98;;;11.33;60.57
59873;BME280;50750;51.636;4.948;2023-02-15T05:00:55;102831.70;;;11.34;60.60
59873;BME280;50750;51.636;4.948;2023-02-15T05:03:21;102830.30;;;11.33;60.55
59873;BME280;50750;51.636;4.948;2023-02-15T05:05:46;102828.39;;;11.33;60.57
59873;BME280;50750;51.636;4.948;2023-02-15T05:08:12;102829.10;;;11.32;60.66
59873;BME280;50750;51.636;4.948;2023-02-15T05:10:38;102834.35;;;11.33;60.59
59873;BME280;50750;51.636;4.948;2023-02-15T05:13:04;102830.15;;;11.32;60.66
59873;BME280;50750;51.636;4.948;2023-02-15T05:15:30;102833.30;;;11.32;60.77
59873;BME280;50750;51.636;4.948;2023-02-15T05:17:56;102831.38;;;11.32;60.67
59873;BME280;50750;51.636;4.948;2023-02-15T05:20:22;102825.94;;;11.31;60.57
59873;BME280;50750;51.636;4.948;2023-02-15T05:22:54;102819.61;;;11.30;60.57
59873;BME280;50750;51.636;4.948;2023-02-15T05:25:20;102817.70;;;11.30;60.58
59873;BME280;50750;51.636;4.948;2023-02-15T05:28:10;102822.42;;;11.31;60.61
59873;BME280;50750;51.636;4.948;2023-02-15T05:30:49;102819.63;;;11.30;60.58
59873;BME280;50750;51.636;4.948;2023-02-15T05:33:17;102822.27;;;11.29;60.59
59873;BME280;50750;51.636;4.948;2023-02-15T05:35:43;102818.58;;;11.29;60.53
59873;BME280;50750;51.636;4.948;2023-02-15T05:38:09;102817.01;;;11.29;60.59
59873;BME280;50750;51.636;4.948;2023-02-15T05:40:35;102816.13;;;11.28;60.54
59873;BME280;50750;51.636;4.948;2023-02-15T05:43:01;102811.20;;;11.28;60.46
59873;BME280;50750;51.636;4.948;2023-02-15T05:45:27;102810.51;;;11.27;60.45
59873;BME280;50750;51.636;4.948;2023-02-15T05:47:52;102810.67;;;11.27;60.50
59873;BME280;50750;51.636;4.948;2023-02-15T05:50:18;102812.97;;;11.26;60.46
59873;BME280;50750;51.636;4.948;2023-02-15T05:52:44;102812.45;;;11.26;60.40
59873;BME280;50750;51.636;4.948;2023-02-15T05:55:10;102812.97;;;11.26;60.37
59873;BME280;50750;51.636;4.948;2023-02-15T05:57:36;102811.74;;;11.26;60.39
59873;BME280;50750;51.636;4.948;2023-02-15T06:00:04;102808.75;;;11.25;60.38
59873;BME280;50750;51.636;4.948;2023-02-15T06:02:34;102808.40;;;11.24;60.34
59873;BME280;50750;51.636;4.948;2023-02-15T06:05:00;102804.73;;;11.24;60.35
59873;BME280;50750;51.636;4.948;2023-02-15T06:07:26;102802.98;;;11.24;60.36
59873;BME280;50750;51.636;4.948;2023-02-15T06:09:52;102803.52;;;11.24;60.37
59873;BME280;50750;51.636;4.948;2023-02-15T06:12:18;102806.67;;;11.24;60.35
59873;BME280;50750;51.636;4.948;2023-02-15T06:14:44;102808.59;;;11.23;60.37
59873;BME280;50750;51.636;4.948;2023-02-15T06:17:09;102809.29;;;11.23;60.41
59873;BME280;50750;51.636;4.948;2023-02-15T06:19:35;102808.58;;;11.22;60.37
59873;BME280;50750;51.636;4.948;2023-02-15T06:22:01;102805.42;;;11.22;60.38
59873;BME280;50750;51.636;4.948;2023-02-15T06:24:27;102808.58;;;11.22;60.26
59873;BME280;50750;51.636;4.948;2023-02-15T06:26:53;102805.42;;;11.22;60.30
59873;BME280;50750;51.636;4.948;2023-02-15T06:29:19;102803.33;;;11.22;60.37
59873;BME280;50750;51.636;4.948;2023-02-15T06:31:45;102800.52;;;11.21;60.34
59873;BME280;50750;51.636;4.948;2023-02-15T06:34:10;102799.48;;;11.21;60.48
59873;BME280;50750;51.636;4.948;2023-02-15T06:36:39;102800.89;;;11.20;60.42
59873;BME280;50750;51.636;4.948;2023-02-15T06:39:05;102798.79;;;11.21;60.47
59873;BME280;50750;51.636;4.948;2023-02-15T06:41:31;102792.81;;;11.20;60.45
59873;BME280;50750;51.636;4.948;2023-02-15T06:43:57;102794.03;;;11.19;60.46
59873;BME280;50750;51.636;4.948;2023-02-15T06:46:23;102795.62;;;11.19;60.48
59873;BME280;50750;51.636;4.948;2023-02-15T06:48:49;102794.74;;;11.19;60.51
59873;BME280;50750;51.636;4.948;2023-02-15T06:51:15;102790.38;;;11.18;60.54
59873;BME280;50750;51.636;4.948;2023-02-15T06:53:41;102791.23;;;11.18;60.63
59873;BME280;50750;51.636;4.948;2023-02-15T06:56:09;102792.13;;;11.17;60.55
59873;BME280;50750;51.636;4.948;2023-02-15T06:58:37;102794.04;;;11.17;60.48
59873;BME280;50750;51.636;4.948;2023-02-15T07:01:03;102788.78;;;11.17;60.51
59873;BME280;50750;51.636;4.948;2023-02-15T07:03:30;102790.02;;;11.16;60.58
59873;BME280;50750;51.636;4.948;2023-02-15T07:05:57;102789.84;;;11.16;60.57
59873;BME280;50750;51.636;4.948;2023-02-15T07:08:25;102787.22;;;11.16;60.68
59873;BME280;50750;51.636;4.948;2023-02-15T07:10:52;102784.23;;;11.16;60.68
59873;BME280;50750;51.636;4.948;2023-02-15T07:13:18;102785.28;;;11.15;60.65
59873;BME280;50750;51.636;4.948;2023-02-15T07:15:46;102784.23;;;11.15;60.68
59873;BME280;50750;51.636;4.948;2023-02-15T07:18:12;102782.11;;;11.15;60.64
59873;BME280;50750;51.636;4.948;2023-02-15T07:20:38;102780.18;;;11.14;60.56
59873;BME280;50750;51.636;4.948;2023-02-15T07:23:07;102782.11;;;11.15;60.69
59873;BME280;50750;51.636;4.948;2023-02-15T07:25:34;102785.45;;;11.14;60.63
59873;BME280;50750;51.636;4.948;2023-02-15T07:28:02;102784.77;;;11.14;60.62
59873;BME280;50750;51.636;4.948;2023-02-15T07:30:29;102785.46;;;11.13;60.68
59873;BME280;50750;51.636;4.948;2023-02-15T07:32:58;102784.94;;;11.10;57.68
59873;BME280;50750;51.636;4.948;2023-02-15T07:35:51;102783.20;;;10.99;56.78
59873;BME280;50750;51.636;4.948;2023-02-15T07:38:18;102783.55;;;10.95;57.22
59873;BME280;50750;51.636;4.948;2023-02-15T07:40:47;102780.58;;;10.93;57.53
59873;BME280;50750;51.636;4.948;2023-02-15T07:43:13;102783.20;;;10.91;57.90
59873;BME280;50750;51.636;4.948;2023-02-15T07:45:40;102782.84;;;10.91;58.11
59873;BME280;50750;51.636;4.948;2023-02-15T07:48:06;102776.02;;;10.90;58.37
59873;BME280;50750;51.636;4.948;2023-02-15T07:50:33;102776.73;;;10.90;58.62
59873;BME280;50750;51.636;4.948;2023-02-15T07:53:03;102775.85;;;10.90;58.77
59873;BME280;50750;51.636;4.948;2023-02-15T07:55:29;102777.08;;;10.89;58.95
59873;BME280;50750;51.636;4.948;2023-02-15T07:57:56;102776.03;;;10.89;59.03
59873;BME280;50750;51.636;4.948;2023-02-15T08:00:22;102778.31;;;10.89;59.21
59873;BME280;50750;51.636;4.948;2023-02-15T08:02:52;102778.13;;;10.89;59.28
59873;BME280;50750;51.636;4.948;2023-02-15T08:05:37;102774.80;;;10.89;59.52
59873;BME280;50750;51.636;4.948;2023-02-15T08:08:04;102769.71;;;10.89;59.40
59873;BME280;50750;51.636;4.948;2023-02-15T08:10:31;102764.45;;;10.90;59.57
59873;BME280;50750;51.636;4.948;2023-02-15T08:13:15;102763.76;;;10.90;59.70
59873;BME280;50750;51.636;4.948;2023-02-15T08:15:51;102760.06;;;10.90;59.78
59873;BME280;50750;51.636;4.948;2023-02-15T08:18:17;102759.36;;;10.91;59.87
59873;BME280;50750;51.636;4.948;2023-02-15T08:20:49;102754.81;;;10.91;59.96
59873;BME280;50750;51.636;4.948;2023-02-15T08:23:15;102758.14;;;10.91;60.18
59873;BME280;50750;51.636;4.948;2023-02-15T08:25:41;102761.48;;;10.92;59.93
59873;BME280;50750;51.636;4.948;2023-02-15T08:28:07;102760.25;;;10.92;60.20
59873;BME280;50750;51.636;4.948;2023-02-15T08:30:32;102759.20;;;10.92;60.16
59873;BME280;50750;51.636;4.948;2023-02-15T08:32:58;102759.54;;;10.92;60.19
59873;BME280;50750;51.636;4.948;2023-02-15T08:35:24;102762.52;;;10.92;60.29
59873;BME280;50750;51.636;4.948;2023-02-15T08:37:51;102765.84;;;10.93;60.23
59873;BME280;50750;51.636;4.948;2023-02-15T08:40:17;102765.15;;;10.93;60.29
59873;BME280;50750;51.636;4.948;2023-02-15T08:42:43;102762.34;;;10.92;60.31
59873;BME280;50750;51.636;4.948;2023-02-15T08:45:08;102760.95;;;10.92;60.30
59873;BME280;50750;51.636;4.948;2023-02-15T08:47:34;102756.73;;;10.92;60.42
59873;BME280;50750;51.636;4.948;2023-02-15T08:50:00;102752.17;;;10.93;60.40
59873;BME280;50750;51.636;4.948;2023-02-15T08:52:26;102751.30;;;10.93;60.33
59873;BME280;50750;51.636;4.948;2023-02-15T08:54:52;102752.01;;;10.93;60.42
59873;BME280;50750;51.636;4.948;2023-02-15T08:57:18;102752.35;;;10.93;60.49
59873;BME280;50750;51.636;4.948;2023-02-15T08:59:44;102747.09;;;10.93;60.50
59873;BME280;50750;51.636;4.948;2023-02-15T09:02:10;102747.10;;;10.93;60.56
59873;BME280;50750;51.636;4.948;2023-02-15T09:04:36;102743.41;;;10.93;60.55
59873;BME280;50750;51.636;4.948;2023-02-15T09:07:01;102742.71;;;10.93;60.55
59873;BME280;50750;51.636;4.948;2023-02-15T09:09:30;102741.48;;;10.93;60.60
59873;BME280;50750;51.636;4.948;2023-02-15T09:11:57;102736.58;;;10.93;60.69
59873;BME280;50750;51.636;4.948;2023-02-15T09:14:23;102733.42;;;10.93;60.68
59873;BME280;50750;51.636;4.948;2023-02-15T09:16:52;102732.73;;;10.94;60.78
59873;BME280;50750;51.636;4.948;2023-02-15T09:19:21;102734.84;;;10.94;60.66
59873;BME280;50750;51.636;4.948;2023-02-15T09:21:47;102730.10;;;10.94;60.73
59873;BME280;50750;51.636;4.948;2023-02-15T09:24:15;102729.58;;;10.94;60.83
59873;BME280;50750;51.636;4.948;2023-02-15T09:26:45;102727.12;;;10.93;60.76
59873;BME280;50750;51.636;4.948;2023-02-15T09:29:11;102736.06;;;10.94;60.87
59873;BME280;50750;51.636;4.948;2023-02-15T09:31:40;102738.86;;;10.94;60.97
59873;BME280;50750;51.636;4.948;2023-02-15T09:34:11;102737.46;;;10.93;60.94
59873;BME280;50750;51.636;4.948;2023-02-15T09:36:39;102735.35;;;10.94;61.02
59873;BME280;50750;51.636;4.948;2023-02-15T09:39:20;102736.23;;;10.94;60.97
59873;BME280;50750;51.636;4.948;2023-02-15T09:44:54;102737.98;;;10.94;61.08
59873;BME280;50750;51.636;4.948;2023-02-15T09:58:01;102742.38;;;10.94;61.28
59873;BME280;50750;51.636;4.948;2023-02-15T10:00:50;102742.20;;;10.94;61.25
59873;BME280;50750;51.636;4.948;2023-02-15T10:12:01;102747.61;;;11.00;61.34
59873;BME280;50750;51.636;4.948;2023-02-15T10:17:40;102746.04;;;11.03;61.47
59873;BME280;50750;51.636;4.948;2023-02-15T10:23:02;102748.84;;;11.04;61.48
59873;BME280;50750;51.636;4.948;2023-02-15T10:28:47;102747.61;;;11.05;61.60
59873;BME280;50750;51.636;4.948;2023-02-15T10:31:34;102746.38;;;11.06;61.50
59873;BME280;50750;51.636;4.948;2023-02-15T10:42:27;102747.61;;;11.07;61.64
59873;BME280;50750;51.636;4.948;2023-02-15T10:50:32;102743.92;;;11.08;61.72
59873;BME280;50750;51.636;4.948;2023-02-15T11:06:32;102722.89;;;11.07;61.90
59873;BME280;50750;51.636;4.948;2023-02-15T11:09:03;102726.05;;;11.08;61.91
59873;BME280;50750;51.636;4.948;2023-02-15T11:11:34;102723.41;;;11.08;61.92
59873;BME280;50750;51.636;4.948;2023-02-15T11:14:05;102724.64;;;11.08;61.97
59873;BME280;50750;51.636;4.948;2023-02-15T11:16:43;102720.77;;;11.09;61.88
59873;BME280;50750;51.636;4.948;2023-02-15T11:19:34;102717.45;;;11.09;61.95
59873;BME280;50750;51.636;4.948;2023-02-15T11:22:04;102713.94;;;11.10;62.06
59873;BME280;50750;51.636;4.948;2023-02-15T11:24:36;102709.91;;;11.10;61.99
59873;BME280;50750;51.636;4.948;2023-02-15T11:29:44;102692.71;;;11.12;62.05
59873;BME280;50750;51.636;4.948;2023-02-15T11:32:31;102691.65;;;11.14;62.01
59873;BME280;50750;51.636;4.948;2023-02-15T11:35:03;102696.21;;;11.16;62.01
59873;BME280;50750;51.636;4.948;2023-02-15T11:42:54;102679.89;;;11.20;61.96
59873;BME280;50750;51.636;4.948;2023-02-15T11:45:32;102677.96;;;11.21;62.05
59873;BME280;50750;51.636;4.948;2023-02-15T11:48:00;102678.66;;;11.21;61.94
59873;BME280;50750;51.636;4.948;2023-02-15T11:50:30;102680.58;;;11.23;61.96
59873;BME280;50750;51.636;4.948;2023-02-15T11:53:00;102674.78;;;11.23;62.07
59873;BME280;50750;51.636;4.948;2023-02-15T11:55:28;102670.75;;;11.24;62.00
59873;BME280;50750;51.636;4.948;2023-02-15T12:00:45;102664.79;;;11.24;62.07
59873;BME280;50750;51.636;4.948;2023-02-15T12:03:18;102656.38;;;11.24;62.12
59873;BME280;50750;51.636;4.948;2023-02-15T12:05:50;102656.36;;;11.24;62.09
59873;BME280;50750;51.636;4.948;2023-02-15T12:08:20;102652.15;;;11.25;62.05
59873;BME280;50750;51.636;4.948;2023-02-15T12:11:03;102650.23;;;11.25;62.09
59873;BME280;50750;51.636;4.948;2023-02-15T12:13:32;102652.67;;;11.25;62.17
59873;BME280;50750;51.636;4.948;2023-02-15T12:16:05;102650.58;;;11.26;62.11
59873;BME280;50750;51.636;4.948;2023-02-15T12:18:41;102647.06;;;11.26;62.11
59873;BME280;50750;51.636;4.948;2023-02-15T12:21:13;102648.12;;;11.27;62.10
59873;BME280;50750;51.636;4.948;2023-02-15T12:23:48;102641.80;;;11.27;62.22
59873;BME280;50750;51.636;4.948;2023-02-15T12:26:30;102634.25;;;11.27;62.20
59873;BME280;50750;51.636;4.948;2023-02-15T12:28:59;102631.27;;;11.28;62.32
59873;BME280;50750;51.636;4.948;2023-02-15T12:31:32;102627.60;;;11.29;62.18
59873;BME280;50750;51.636;4.948;2023-02-15T12:34:03;102621.98;;;11.29;62.18
59873;BME280;50750;51.636;4.948;2023-02-15T12:37:02;102614.42;;;11.30;62.14
59873;BME280;50750;51.636;4.948;2023-02-15T12:39:33;102608.29;;;11.30;62.20
59873;BME280;50750;51.636;4.948;2023-02-15T12:42:41;102611.27;;;11.32;62.32
59873;BME280;50750;51.636;4.948;2023-02-15T12:45:31;102614.09;;;11.32;62.27
59873;BME280;50750;51.636;4.948;2023-02-15T12:48:18;102614.77;;;11.32;62.32
59873;BME280;50750;51.636;4.948;2023-02-15T12:50:49;102614.41;;;11.33;62.30
59873;BME280;50750;51.636;4.948;2023-02-15T12:53:20;102612.30;;;11.33;62.39
59873;BME280;50750;51.636;4.948;2023-02-15T12:56:09;102608.45;;;11.34;62.39
59873;BME280;50750;51.636;4.948;2023-02-15T12:58:39;102608.79;;;11.35;62.32
59873;BME280;50750;51.636;4.948;2023-02-15T13:03:39;102604.39;;;11.39;62.27
59873;BME280;50750;51.636;4.948;2023-02-15T13:06:18;102601.39;;;11.41;62.25
59873;BME280;50750;51.636;4.948;2023-02-15T13:08:49;102594.20;;;11.42;62.30
59873;BME280;50750;51.636;4.948;2023-02-15T13:11:28;102594.36;;;11.44;62.23
59873;BME280;50750;51.636;4.948;2023-02-15T13:14:01;102592.25;;;11.45;62.19
59873;BME280;50750;51.636;4.948;2023-02-15T13:18:57;102597.15;;;11.47;62.28
59873;BME280;50750;51.636;4.948;2023-02-15T13:21:45;102593.28;;;11.48;62.17
59873;BME280;50750;51.636;4.948;2023-02-15T13:24:43;102593.80;;;11.49;62.34
59873;BME280;50750;51.636;4.948;2023-02-15T13:27:15;102596.08;;;11.50;62.30
59873;BME280;50750;51.636;4.948;2023-02-15T13:29:48;102596.44;;;11.50;62.30
59873;BME280;50750;51.636;4.948;2023-02-15T13:34:47;102606.41;;;11.52;62.18
59873;BME280;50750;51.636;4.948;2023-02-15T13:37:42;102606.77;;;11.53;62.31
59873;BME280;50750;51.636;4.948;2023-02-15T13:45:39;102604.66;;;11.53;62.33
59873;BME280;50750;51.636;4.948;2023-02-15T13:56:17;102590.27;;;11.54;62.33
59873;BME280;50750;51.636;4.948;2023-02-15T14:18:55;102580.27;;;11.54;62.55
59873;BME280;50750;51.636;4.948;2023-02-15T14:21:27;102576.74;;;11.54;62.59
59873;BME280;50750;51.636;4.948;2023-02-15T14:24:30;102581.83;;;11.55;62.58
59873;BME280;50750;51.636;4.948;2023-02-15T14:29:56;102580.42;;;11.58;62.45
59873;BME280;50750;51.636;4.948;2023-02-15T14:32:37;102578.46;;;11.60;62.43
59873;BME280;50750;51.636;4.948;2023-02-15T14:35:13;102577.05;;;11.62;62.40
59873;BME280;50750;51.636;4.948;2023-02-15T14:37:44;102577.39;;;11.63;62.45
59873;BME280;50750;51.636;4.948;2023-02-15T14:46:07;102580.70;;;11.66;62.36
59873;BME280;50750;51.636;4.948;2023-02-15T14:48:42;102575.08;;;11.67;62.37
59873;BME280;50750;51.636;4.948;2023-02-15T14:54:10;102576.64;;;11.68;62.37
59873;BME280;50750;51.636;4.948;2023-02-15T14:56:36;102573.66;;;11.69;62.47
59873;BME280;50750;51.636;4.948;2023-02-15T14:59:20;102572.44;;;11.68;62.36
59873;BME280;50750;51.636;4.948;2023-02-15T15:04:27;102570.69;;;11.69;62.41
59873;BME280;50750;51.636;4.948;2023-02-15T15:09:35;102574.89;;;11.70;62.46
59873;BME280;50750;51.636;4.948;2023-02-15T15:14:50;102582.25;;;11.70;62.37
59873;BME280;50750;51.636;4.948;2023-02-15T15:20:12;102573.66;;;11.70;62.43
59873;BME280;50750;51.636;4.948;2023-02-15T15:22:42;102572.45;;;11.69;62.44
59873;BME280;50750;51.636;4.948;2023-02-15T15:27:55;102572.43;;;11.70;62.52
59873;BME280;50750;51.636;4.948;2023-02-15T15:49:17;102547.09;;;11.78;62.40
59873;BME280;50750;51.636;4.948;2023-02-15T15:51:45;102541.64;;;11.79;62.41
59873;BME280;50750;51.636;4.948;2023-02-15T15:54:17;102540.94;;;11.80;62.54
59873;BME280;50750;51.636;4.948;2023-02-15T15:56:47;102539.36;;;11.80;62.45
59873;BME280;50750;51.636;4.948;2023-02-15T15:59:20;102538.46;;;11.81;62.41
59873;BME280;50750;51.636;4.948;2023-02-15T16:01:49;102538.98;;;11.82;62.38
59873;BME280;50750;51.636;4.948;2023-02-15T16:04:28;102545.14;;;11.83;62.39
59873;BME280;50750;51.636;4.948;2023-02-15T16:06:57;102543.20;;;11.83;62.51
59873;BME280;50750;51.636;4.948;2023-02-15T16:09:26;102550.38;;;11.83;62.31
59873;BME280;50750;51.636;4.948;2023-02-15T16:11:54;102554.95;;;11.84;62.47
59873;BME280;50750;51.636;4.948;2023-02-15T16:14:30;102555.65;;;11.83;62.38
59873;BME280;50750;51.636;4.948;2023-02-15T16:17:00;102555.30;;;11.84;62.42